Time;durP1;ratioP1;P1;durP2;ratioP2;P2;SDS_P1;SDS_P2;PMS_P1;PMS_P2;Temp;Humidity;BMP_temperature;BMP_pressure;BME280_temperature;BME280_humidity;BME280_pressure;Samples;Min_cycle;Max_cycle;Signal;HPM_P1;HPM_P2
2023/08/16 00:00:09;;;;;;;6.32;4.60;;;;;;;;;;5111910;28;20060;-61
2023/08/16 00:02:35;;;;;;;6.25;4.78;;;;;;;;;;5111581;28;20051;-61
2023/08/16 00:05:01;;;;;;;5.70;4.65;;;;;;;;;;5111512;28;20092;-61
2023/08/16 00:07:27;;;;;;;8.25;5.28;;;;;;;;;;5111410;28;20044;-61
2023/08/16 00:09:53;;;;;;;6.30;4.80;;;;;;;;;;5091090;28;20036;-61
2023/08/16 00:12:19;;;;;;;5.63;4.53;;;;;;;;;;5090461;28;20036;-61
2023/08/16 00:14:45;;;;;;;7.75;4.50;;;;;;;;;;5091263;28;20040;-61
2023/08/16 00:17:11;;;;;;;6.38;4.85;;;;;;;;;;5090905;28;20671;-61
2023/08/16 00:19:38;;;;;;;7.47;4.43;;;;;;;;;;5091256;28;20040;-61
2023/08/16 00:22:04;;;;;;;4.65;4.13;;;;;;;;;;5091195;28;20402;-61
2023/08/16 00:24:31;;;;;;;7.45;4.47;;;;;;;;;;5090948;28;20051;-61
2023/08/16 00:26:58;;;;;;;4.50;4.10;;;;;;;;;;5107906;28;20040;-61
2023/08/16 00:29:24;;;;;;;6.03;4.40;;;;;;;;;;5111505;28;20043;-61
2023/08/16 00:31:50;;;;;;;6.45;4.20;;;;;;;;;;5111605;28;20119;-61
2023/08/16 00:34:17;;;;;;;6.70;4.18;;;;;;;;;;5110970;28;20078;-61
2023/08/16 00:36:43;;;;;;;6.93;4.10;;;;;;;;;;5111240;28;20043;-61
2023/08/16 00:39:09;;;;;;;4.95;4.43;;;;;;;;;;5111320;28;20122;-61
2023/08/16 00:41:35;;;;;;;5.78;4.40;;;;;;;;;;5110938;28;20047;-61
2023/08/16 00:44:01;;;;;;;9.25;3.80;;;;;;;;;;5110839;28;20047;-61
2023/08/16 00:46:27;;;;;;;3.83;3.42;;;;;;;;;;5111077;28;20035;-61
2023/08/16 00:48:53;;;;;;;6.70;3.92;;;;;;;;;;5110887;28;20040;-61
2023/08/16 00:51:20;;;;;;;6.07;3.70;;;;;;;;;;5110975;28;20039;-61
2023/08/16 00:53:47;;;;;;;6.95;4.20;;;;;;;;;;5111236;28;20390;-61
2023/08/16 00:56:16;;;;;;;6.68;4.18;;;;;;;;;;5110760;28;20043;-61
2023/08/16 00:58:43;;;;;;;6.45;4.13;;;;;;;;;;5111145;28;20047;-61
2023/08/16 01:01:09;;;;;;;4.93;4.22;;;;;;;;;;5110970;28;20070;-61
2023/08/16 01:03:36;;;;;;;5.82;4.18;;;;;;;;;;5110738;28;20122;-61
2023/08/16 01:06:02;;;;;;;5.22;4.00;;;;;;;;;;5110978;28;20044;-61
2023/08/16 01:08:28;;;;;;;5.95;3.92;;;;;;;;;;5102186;28;20036;-61
2023/08/16 01:11:17;;;;;;;6.45;4.25;;;;;;;;;;5090464;28;20028;-61
2023/08/16 01:13:58;;;;;;;5.55;4.55;;;;;;;;;;5090175;28;20056;-61
2023/08/16 01:16:26;;;;;;;4.25;3.85;;;;;;;;;;5090076;28;20075;-61
2023/08/16 01:18:53;;;;;;;7.93;4.20;;;;;;;;;;5090690;28;20478;-61
2023/08/16 01:21:20;;;;;;;5.13;4.15;;;;;;;;;;5090613;28;20097;-61
2023/08/16 01:23:46;;;;;;;4.75;4.00;;;;;;;;;;5092667;28;20105;-61
2023/08/16 01:26:15;;;;;;;5.22;3.90;;;;;;;;;;5105223;28;20039;-61
2023/08/16 01:28:42;;;;;;;4.47;3.22;;;;;;;;;;5114804;28;20375;-61
2023/08/16 01:31:09;;;;;;;6.25;3.53;;;;;;;;;;5114583;28;20089;-61
2023/08/16 01:33:35;;;;;;;4.05;3.60;;;;;;;;;;5114325;28;20051;-61
2023/08/16 01:36:01;;;;;;;4.82;3.70;;;;;;;;;;5114657;28;20104;-61
2023/08/16 01:38:28;;;;;;;5.35;3.72;;;;;;;;;;5114646;28;20524;-61
2023/08/16 01:40:58;;;;;;;6.45;4.00;;;;;;;;;;5114428;28;20054;-61
2023/08/16 01:43:24;;;;;;;5.00;3.80;;;;;;;;;;5114561;28;20043;-61
2023/08/16 01:45:52;;;;;;;5.72;3.95;;;;;;;;;;5114578;28;20512;-61
2023/08/16 01:48:19;;;;;;;4.43;3.70;;;;;;;;;;5113877;28;20043;-61
2023/08/16 01:50:45;;;;;;;5.20;3.97;;;;;;;;;;5114398;28;20122;-61
2023/08/16 01:53:11;;;;;;;5.20;4.20;;;;;;;;;;5147537;27;20051;-61
2023/08/16 01:55:37;;;;;;;7.07;4.45;;;;;;;;;;5113944;28;20035;-61
2023/08/16 01:58:03;;;;;;;5.05;4.07;;;;;;;;;;5114058;28;20039;-61
2023/08/16 02:00:29;;;;;;;5.07;4.03;;;;;;;;;;5114408;28;20031;-61
2023/08/16 02:02:55;;;;;;;4.10;3.47;;;;;;;;;;5113588;28;20036;-61
2023/08/16 02:05:21;;;;;;;4.05;2.90;;;;;;;;;;5114253;28;20075;-61
2023/08/16 02:07:47;;;;;;;5.85;3.10;;;;;;;;;;5114011;28;20031;-61
2023/08/16 02:10:13;;;;;;;4.05;3.20;;;;;;;;;;5113629;28;20066;-61
2023/08/16 02:12:39;;;;;;;5.63;4.05;;;;;;;;;;5113629;28;20051;-61
2023/08/16 02:15:06;;;;;;;5.55;3.88;;;;;;;;;;5113845;28;20097;-61
2023/08/16 02:17:31;;;;;;;6.85;4.13;;;;;;;;;;5113599;28;20439;-61
2023/08/16 02:19:58;;;;;;;5.18;3.60;;;;;;;;;;5113979;28;20042;-61
2023/08/16 02:22:24;;;;;;;5.95;4.28;;;;;;;;;;5113696;28;20089;-61
2023/08/16 02:24:51;;;;;;;5.07;3.58;;;;;;;;;;5113421;28;20047;-61
2023/08/16 02:27:18;;;;;;;5.05;4.30;;;;;;;;;;5113404;28;20043;-61
2023/08/16 02:29:44;;;;;;;6.68;4.30;;;;;;;;;;5113357;28;20114;-61
2023/08/16 02:32:10;;;;;;;6.90;4.47;;;;;;;;;;5113318;28;20043;-61
2023/08/16 02:34:36;;;;;;;7.15;4.45;;;;;;;;;;5112317;28;20046;-61
2023/08/16 02:37:02;;;;;;;5.32;4.43;;;;;;;;;;5113611;28;20031;-61
2023/08/16 02:39:29;;;;;;;7.38;4.72;;;;;;;;;;5113286;28;20123;-61
2023/08/16 02:41:56;;;;;;;7.57;4.60;;;;;;;;;;5113464;28;20040;-61
2023/08/16 02:44:22;;;;;;;6.97;4.53;;;;;;;;;;5113331;28;20473;-61
2023/08/16 02:46:48;;;;;;;6.03;4.40;;;;;;;;;;5112752;28;20050;-61
2023/08/16 02:49:14;;;;;;;7.55;4.30;;;;;;;;;;5111869;28;20035;-61
2023/08/16 02:51:40;;;;;;;7.97;4.93;;;;;;;;;;5113349;28;20154;-61
2023/08/16 02:54:06;;;;;;;6.55;4.88;;;;;;;;;;5112819;28;20044;-61
2023/08/16 02:56:33;;;;;;;7.28;4.22;;;;;;;;;;5113332;28;20054;-61
2023/08/16 02:58:59;;;;;;;11.40;5.10;;;;;;;;;;5113300;28;20046;-61
2023/08/16 03:01:25;;;;;;;8.77;5.30;;;;;;;;;;5112857;28;20051;-61
2023/08/16 03:03:51;;;;;;;5.97;4.60;;;;;;;;;;5112974;28;20053;-61
2023/08/16 03:06:17;;;;;;;6.13;4.32;;;;;;;;;;5112814;28;20079;-61
2023/08/16 03:08:43;;;;;;;6.97;4.72;;;;;;;;;;5101642;28;20470;-61
2023/08/16 03:11:09;;;;;;;6.75;4.78;;;;;;;;;;5092619;28;20031;-61
2023/08/16 03:13:35;;;;;;;7.72;5.57;;;;;;;;;;5091848;28;20670;-61
2023/08/16 03:16:01;;;;;;;9.98;4.65;;;;;;;;;;5092029;28;20100;-61
2023/08/16 03:18:27;;;;;;;7.25;4.93;;;;;;;;;;5092443;28;20043;-61
2023/08/16 03:20:53;;;;;;;5.70;4.25;;;;;;;;;;5092365;28;20078;-61
2023/08/16 03:23:19;;;;;;;9.40;5.72;;;;;;;;;;5091492;28;20044;-61
2023/08/16 03:25:45;;;;;;;8.13;5.40;;;;;;;;;;5099123;28;20100;-61
2023/08/16 03:28:11;;;;;;;9.98;6.07;;;;;;;;;;5112545;28;20039;-61
2023/08/16 03:30:37;;;;;;;8.75;5.70;;;;;;;;;;5111851;28;20039;-61
2023/08/16 03:33:04;;;;;;;8.05;5.75;;;;;;;;;;5112354;28;20032;-61
2023/08/16 03:35:30;;;;;;;8.20;5.75;;;;;;;;;;5112301;28;20040;-61
2023/08/16 03:37:56;;;;;;;8.85;5.68;;;;;;;;;;5112026;28;20040;-61
2023/08/16 03:40:22;;;;;;;10.90;6.15;;;;;;;;;;5112326;28;20035;-61
2023/08/16 03:42:48;;;;;;;9.68;6.53;;;;;;;;;;5112087;28;20035;-61
2023/08/16 03:45:14;;;;;;;9.55;6.28;;;;;;;;;;5111804;28;20032;-61
2023/08/16 03:47:40;;;;;;;8.48;6.15;;;;;;;;;;5111562;28;20043;-61
2023/08/16 03:50:07;;;;;;;8.27;5.30;;;;;;;;;;5112247;28;20156;-61
2023/08/16 03:52:33;;;;;;;8.10;5.07;;;;;;;;;;5111739;28;20625;-61
2023/08/16 03:54:59;;;;;;;6.43;4.50;;;;;;;;;;5112006;28;20039;-61
2023/08/16 03:57:25;;;;;;;7.03;5.13;;;;;;;;;;5110573;28;20100;-61
2023/08/16 03:59:54;;;;;;;6.90;4.80;;;;;;;;;;5111741;28;20040;-61
2023/08/16 04:02:21;;;;;;;7.13;5.20;;;;;;;;;;5111900;28;20046;-61
2023/08/16 04:04:51;;;;;;;8.65;5.40;;;;;;;;;;5111877;28;20466;-61
2023/08/16 04:07:17;;;;;;;9.68;5.10;;;;;;;;;;5111382;28;20092;-61
2023/08/16 04:09:43;;;;;;;8.02;4.28;;;;;;;;;;5111344;28;20078;-61
2023/08/16 04:12:09;;;;;;;6.25;4.35;;;;;;;;;;5111577;28;20067;-61
2023/08/16 04:14:35;;;;;;;10.07;4.65;;;;;;;;;;5110863;28;20066;-61
2023/08/16 04:17:01;;;;;;;6.60;4.90;;;;;;;;;;5111882;28;20044;-61
2023/08/16 04:19:27;;;;;;;6.85;4.55;;;;;;;;;;5111431;28;20055;-61
2023/08/16 04:21:53;;;;;;;6.65;5.03;;;;;;;;;;5111159;28;20371;-61
2023/08/16 04:24:19;;;;;;;5.13;4.35;;;;;;;;;;5111345;28;20045;-61
2023/08/16 04:26:45;;;;;;;4.47;3.78;;;;;;;;;;5109833;28;20082;-61
2023/08/16 04:29:11;;;;;;;5.05;4.00;;;;;;;;;;5111060;28;20039;-61
2023/08/16 04:31:37;;;;;;;4.63;3.88;;;;;;;;;;5111570;28;20042;-61
2023/08/16 04:34:03;;;;;;;5.38;4.32;;;;;;;;;;5111304;28;20382;-61
2023/08/16 04:36:29;;;;;;;4.68;3.75;;;;;;;;;;5111047;28;20123;-61
2023/08/16 04:38:55;;;;;;;8.55;5.10;;;;;;;;;;5110826;28;20574;-61
2023/08/16 04:41:21;;;;;;;6.20;5.03;;;;;;;;;;5111145;28;20100;-61
2023/08/16 04:43:47;;;;;;;9.48;6.18;;;;;;;;;;5110896;28;20050;-61
2023/08/16 04:46:13;;;;;;;8.20;6.05;;;;;;;;;;5111148;28;20044;-61
2023/08/16 04:48:39;;;;;;;9.25;6.80;;;;;;;;;;5110927;28;20077;-61
2023/08/16 04:51:05;;;;;;;10.05;7.25;;;;;;;;;;5110795;28;20039;-61
2023/08/16 04:53:31;;;;;;;13.18;7.70;;;;;;;;;;5110714;28;20043;-61
2023/08/16 04:55:58;;;;;;;16.10;10.93;;;;;;;;;;5111068;28;20039;-61
2023/08/16 04:58:24;;;;;;;18.63;12.13;;;;;;;;;;5112278;28;20040;-61
2023/08/16 05:00:50;;;;;;;7.25;6.55;;;;;;;;;;5115055;28;20040;-61
2023/08/16 05:03:16;;;;;;;8.52;6.20;;;;;;;;;;5114835;28;20036;-61
2023/08/16 05:05:42;;;;;;;8.80;5.95;;;;;;;;;;5114990;28;20043;-61
2023/08/16 05:08:08;;;;;;;7.57;6.55;;;;;;;;;;5114965;28;20031;-61
2023/08/16 05:10:34;;;;;;;8.07;6.20;;;;;;;;;;5115096;28;20462;-61
2023/08/16 05:13:00;;;;;;;10.10;6.53;;;;;;;;;;5114754;28;20104;-61
2023/08/16 05:15:26;;;;;;;7.82;6.25;;;;;;;;;;5114517;28;20039;-61
2023/08/16 05:17:52;;;;;;;8.38;6.25;;;;;;;;;;5114774;28;20048;-61
2023/08/16 05:20:18;;;;;;;7.75;6.05;;;;;;;;;;5114456;28;20052;-61
2023/08/16 05:22:44;;;;;;;8.10;6.40;;;;;;;;;;5114547;28;20047;-61
2023/08/16 05:25:10;;;;;;;6.85;5.75;;;;;;;;;;5115211;28;20074;-61
2023/08/16 05:27:36;;;;;;;6.53;5.80;;;;;;;;;;5114721;28;20410;-61
2023/08/16 05:30:02;;;;;;;6.55;5.85;;;;;;;;;;5114530;28;20032;-61
2023/08/16 05:32:28;;;;;;;10.60;6.43;;;;;;;;;;5114871;28;20092;-61
2023/08/16 05:34:54;;;;;;;9.50;6.53;;;;;;;;;;5114658;28;20734;-61
2023/08/16 05:37:21;;;;;;;6.95;5.75;;;;;;;;;;5114324;28;20039;-61
2023/08/16 05:39:47;;;;;;;7.20;5.90;;;;;;;;;;5114630;28;20039;-61
2023/08/16 05:42:13;;;;;;;7.20;6.15;;;;;;;;;;5114600;28;20074;-61
2023/08/16 05:44:39;;;;;;;7.97;6.13;;;;;;;;;;5114065;28;20482;-61
2023/08/16 05:47:05;;;;;;;7.30;6.20;;;;;;;;;;5114249;28;20066;-61
2023/08/16 05:49:31;;;;;;;7.82;6.32;;;;;;;;;;5114324;28;20062;-61
2023/08/16 05:51:57;;;;;;;9.40;6.53;;;;;;;;;;5114041;28;20472;-61
2023/08/16 05:54:23;;;;;;;8.63;6.03;;;;;;;;;;5114287;28;20083;-61
2023/08/16 05:56:49;;;;;;;9.05;6.65;;;;;;;;;;5114450;28;20048;-61
2023/08/16 05:59:15;;;;;;;9.70;6.70;;;;;;;;;;5113654;28;20127;-61
2023/08/16 06:01:41;;;;;;;9.00;7.10;;;;;;;;;;5114234;28;20173;-61
2023/08/16 06:04:07;;;;;;;10.90;7.45;;;;;;;;;;5113922;28;20036;-62
2023/08/16 06:06:34;;;;;;;13.55;7.47;;;;;;;;;;5112208;28;20044;-64
2023/08/16 06:09:00;;;;;;;10.05;6.07;;;;;;;;;;5120200;27;20039;-64
2023/08/16 06:11:26;;;;;;;9.68;6.85;;;;;;;;;;5112215;28;20501;-65
2023/08/16 06:13:52;;;;;;;9.43;7.10;;;;;;;;;;5113249;28;20052;-65
2023/08/16 06:16:18;;;;;;;8.13;7.10;;;;;;;;;;5128150;27;20111;-65
2023/08/16 06:18:45;;;;;;;9.40;7.68;;;;;;;;;;5133802;27;20043;-65
2023/08/16 06:21:11;;;;;;;7.80;7.00;;;;;;;;;;5134074;27;20074;-65
2023/08/16 06:23:40;;;;;;;9.43;7.65;;;;;;;;;;5133924;27;20047;-64
2023/08/16 06:26:06;;;;;;;9.43;7.22;;;;;;;;;;5124237;27;20058;-65
2023/08/16 06:28:32;;;;;;;10.02;7.80;;;;;;;;;;5128782;27;20035;-65
2023/08/16 06:30:58;;;;;;;9.82;7.25;;;;;;;;;;5133913;27;20035;-65
2023/08/16 06:33:24;;;;;;;11.05;7.53;;;;;;;;;;5133388;27;20102;-64
2023/08/16 06:35:52;;;;;;;11.05;8.35;;;;;;;;;;5133576;27;20038;-66
2023/08/16 06:38:18;;;;;;;13.23;8.40;;;;;;;;;;5131577;27;20382;-64
2023/08/16 06:40:44;;;;;;;13.13;8.88;;;;;;;;;;5120002;27;20067;-65
2023/08/16 06:43:10;;;;;;;14.55;9.15;;;;;;;;;;5111854;28;20040;-65
2023/08/16 06:45:36;;;;;;;11.95;10.15;;;;;;;;;;5113025;28;20027;-65
2023/08/16 06:48:03;;;;;;;14.50;10.25;;;;;;;;;;5123635;27;20035;-65
2023/08/16 06:50:30;;;;;;;16.20;10.65;;;;;;;;;;5118291;27;20044;-65
2023/08/16 06:52:56;;;;;;;14.45;10.55;;;;;;;;;;5131186;27;20154;-63
2023/08/16 06:55:22;;;;;;;14.00;10.95;;;;;;;;;;5114853;27;20035;-64
2023/08/16 06:57:48;;;;;;;12.40;10.02;;;;;;;;;;5114703;27;20055;-64
2023/08/16 07:00:17;;;;;;;10.70;9.27;;;;;;;;;;5118407;27;20039;-64
2023/08/16 07:02:43;;;;;;;20.13;10.90;;;;;;;;;;5125060;27;20039;-64
2023/08/16 07:05:12;;;;;;;16.55;11.23;;;;;;;;;;5130961;27;20083;-64
2023/08/16 07:07:38;;;;;;;14.82;11.27;;;;;;;;;;5120061;27;20064;-64
2023/08/16 07:10:04;;;;;;;14.95;9.85;;;;;;;;;;5112735;27;20047;-64
2023/08/16 07:12:30;;;;;;;13.73;9.65;;;;;;;;;;5132211;27;20582;-64
2023/08/16 07:14:56;;;;;;;16.00;11.15;;;;;;;;;;5130406;27;20115;-63
2023/08/16 07:17:22;;;;;;;14.38;10.63;;;;;;;;;;5128725;27;20043;-65
2023/08/16 07:19:50;;;;;;;14.93;10.10;;;;;;;;;;5132036;27;20738;-66
2023/08/16 07:22:16;;;;;;;17.95;10.30;;;;;;;;;;5131908;27;20090;-64
2023/08/16 07:24:42;;;;;;;18.17;10.88;;;;;;;;;;5132425;27;20054;-64
2023/08/16 07:27:08;;;;;;;16.50;10.82;;;;;;;;;;5118306;27;20365;-65
2023/08/16 07:29:34;;;;;;;16.23;10.20;;;;;;;;;;5117673;27;20050;-65
2023/08/16 07:32:00;;;;;;;16.65;10.23;;;;;;;;;;5122937;27;20035;-64
2023/08/16 07:34:26;;;;;;;15.07;10.82;;;;;;;;;;5119460;27;20043;-63
2023/08/16 07:36:52;;;;;;;17.65;11.07;;;;;;;;;;5131944;27;20043;-63
2023/08/16 07:39:18;;;;;;;16.17;11.27;;;;;;;;;;5132380;27;20050;-65
2023/08/16 07:41:44;;;;;;;16.33;11.00;;;;;;;;;;5118942;27;20039;-66
2023/08/16 07:44:10;;;;;;;17.20;11.90;;;;;;;;;;5129687;27;20142;-64
2023/08/16 07:46:36;;;;;;;21.20;10.73;;;;;;;;;;5131891;27;20043;-65
2023/08/16 07:49:02;;;;;;;16.73;11.70;;;;;;;;;;5133114;27;20039;-66
2023/08/16 07:51:28;;;;;;;15.82;9.95;;;;;;;;;;5134993;27;20381;-65
2023/08/16 07:53:54;;;;;;;17.30;10.90;;;;;;;;;;5121775;27;20036;-65
2023/08/16 07:56:20;;;;;;;13.48;9.82;;;;;;;;;;5128784;27;20050;-63
2023/08/16 07:58:46;;;;;;;18.25;11.23;;;;;;;;;;5119707;27;20035;-63
2023/08/16 08:01:13;;;;;;;13.57;9.02;;;;;;;;;;5114775;27;20136;-63
2023/08/16 08:03:39;;;;;;;16.65;8.85;;;;;;;;;;5120998;27;20051;-63
2023/08/16 08:06:05;;;;;;;11.98;8.38;;;;;;;;;;5103713;28;20070;-64
2023/08/16 08:08:31;;;;;;;12.32;8.18;;;;;;;;;;5109514;27;20043;-64
2023/08/16 08:10:58;;;;;;;10.80;6.75;;;;;;;;;;5115736;27;20050;-64
2023/08/16 08:13:24;;;;;;;12.13;6.38;;;;;;;;;;5131297;27;20167;-64
2023/08/16 08:15:50;;;;;;;11.93;6.05;;;;;;;;;;5131365;27;20122;-65
2023/08/16 08:18:16;;;;;;;10.13;5.28;;;;;;;;;;5131121;27;20729;-65
2023/08/16 08:20:42;;;;;;;9.15;3.67;;;;;;;;;;5132557;27;20078;-66
2023/08/16 08:23:08;;;;;;;4.55;2.53;;;;;;;;;;5131325;27;20084;-65
2023/08/16 08:25:34;;;;;;;7.95;2.90;;;;;;;;;;5128462;27;20035;-65
2023/08/16 08:28:00;;;;;;;10.23;3.80;;;;;;;;;;5121741;27;20042;-64
2023/08/16 08:30:26;;;;;;;10.70;4.55;;;;;;;;;;5119364;27;20044;-66
2023/08/16 08:32:55;;;;;;;8.30;3.38;;;;;;;;;;5107092;27;20040;-64
2023/08/16 08:35:21;;;;;;;5.00;2.78;;;;;;;;;;5129539;27;20055;-64
2023/08/16 08:37:47;;;;;;;4.72;2.80;;;;;;;;;;5115470;27;20042;-64
2023/08/16 08:40:14;;;;;;;6.43;3.05;;;;;;;;;;5122357;27;20054;-65
2023/08/16 08:42:42;;;;;;;5.53;2.65;;;;;;;;;;5120812;27;20047;-64
2023/08/16 08:45:08;;;;;;;3.95;2.47;;;;;;;;;;5130783;27;20039;-64
2023/08/16 08:47:34;;;;;;;4.18;1.80;;;;;;;;;;5130665;27;20043;-64
2023/08/16 08:50:00;;;;;;;4.57;1.70;;;;;;;;;;5122841;27;20071;-64
2023/08/16 08:52:27;;;;;;;5.75;1.65;;;;;;;;;;5128077;28;20035;-63
2023/08/16 08:54:53;;;;;;;7.47;2.00;;;;;;;;;;5126475;27;20039;-66
2023/08/16 08:57:19;;;;;;;8.15;2.60;;;;;;;;;;5128094;28;20568;-66
2023/08/16 08:59:49;;;;;;;3.55;1.75;;;;;;;;;;5130495;27;20039;-65
2023/08/16 09:02:15;;;;;;;2.90;1.52;;;;;;;;;;5131106;27;20055;-66
2023/08/16 09:04:42;;;;;;;10.20;1.77;;;;;;;;;;5123634;27;20043;-66
2023/08/16 09:07:09;;;;;;;1.85;1.10;;;;;;;;;;5130335;27;20088;-65
2023/08/16 09:09:35;;;;;;;2.40;1.45;;;;;;;;;;5114547;27;20043;-64
2023/08/16 09:12:01;;;;;;;1.58;1.30;;;;;;;;;;5129678;27;20088;-64
2023/08/16 09:14:27;;;;;;;5.35;1.45;;;;;;;;;;5130680;27;20043;-64
2023/08/16 09:16:53;;;;;;;3.05;1.70;;;;;;;;;;5126622;27;20119;-65
2023/08/16 09:19:19;;;;;;;3.55;1.65;;;;;;;;;;5119038;27;20050;-65
2023/08/16 09:21:45;;;;;;;4.13;1.45;;;;;;;;;;5130743;27;20043;-64
2023/08/16 09:24:11;;;;;;;3.22;1.85;;;;;;;;;;5120303;27;20043;-64
2023/08/16 09:26:37;;;;;;;2.13;1.40;;;;;;;;;;5126555;27;20370;-64
2023/08/16 09:29:04;;;;;;;6.93;1.52;;;;;;;;;;5126723;27;20045;-65
2023/08/16 09:31:30;;;;;;;3.45;1.50;;;;;;;;;;5121439;27;20127;-65
2023/08/16 09:34:00;;;;;;;3.80;1.58;;;;;;;;;;5130135;27;20039;-64
2023/08/16 09:36:30;;;;;;;3.58;1.30;;;;;;;;;;5120864;27;20791;-65
2023/08/16 09:39:03;;;;;;;2.45;1.23;;;;;;;;;;5120636;28;20047;-65
2023/08/16 09:41:30;;;;;;;4.78;1.55;;;;;;;;;;5126097;28;20094;-65
2023/08/16 09:44:07;;;;;;;2.42;1.00;;;;;;;;;;5115796;27;20088;-64
2023/08/16 09:46:33;;;;;;;2.40;0.98;;;;;;;;;;5128741;27;20463;-64
2023/08/16 09:49:07;;;;;;;2.28;1.17;;;;;;;;;;5133157;27;20035;-65
2023/08/16 09:51:34;;;;;;;2.80;0.80;;;;;;;;;;5134137;27;20038;-64
2023/08/16 09:54:02;;;;;;;2.25;1.05;;;;;;;;;;5132925;27;20070;-66
2023/08/16 09:56:29;;;;;;;1.63;1.10;;;;;;;;;;5126136;27;20079;-64
2023/08/16 09:58:56;;;;;;;2.70;1.40;;;;;;;;;;5126867;27;20050;-65
2023/08/16 10:01:22;;;;;;;2.40;1.70;;;;;;;;;;5131081;27;20071;-65
2023/08/16 10:03:54;;;;;;;3.13;1.30;;;;;;;;;;5132988;27;20045;-63
2023/08/16 10:06:23;;;;;;;3.97;1.45;;;;;;;;;;5134451;27;20150;-65
2023/08/16 10:08:54;;;;;;;2.88;1.50;;;;;;;;;;5132303;27;20043;-65
2023/08/16 10:11:20;;;;;;;3.10;1.55;;;;;;;;;;5109197;28;20042;-65
2023/08/16 10:13:46;;;;;;;1.95;0.80;;;;;;;;;;5112925;28;20481;-65
2023/08/16 10:16:14;;;;;;;2.88;1.10;;;;;;;;;;5108497;27;20058;-64
2023/08/16 10:18:42;;;;;;;2.50;1.13;;;;;;;;;;5113304;27;20041;-64
2023/08/16 10:21:09;;;;;;;1.40;1.10;;;;;;;;;;5115000;27;20092;-65
2023/08/16 10:23:38;;;;;;;3.60;1.00;;;;;;;;;;5109690;27;20048;-65
2023/08/16 10:26:05;;;;;;;0.70;0.70;;;;;;;;;;5111326;27;20051;-64
2023/08/16 10:28:32;;;;;;;3.40;1.10;;;;;;;;;;5118000;27;20126;-65
2023/08/16 10:31:00;;;;;;;2.80;1.10;;;;;;;;;;5113395;28;20039;-65
2023/08/16 10:33:29;;;;;;;4.72;1.55;;;;;;;;;;5127640;27;20039;-65
2023/08/16 10:35:55;;;;;;;2.40;1.20;;;;;;;;;;5096879;28;20395;-65
2023/08/16 10:38:21;;;;;;;2.47;1.20;;;;;;;;;;5121304;27;20038;-66
2023/08/16 10:40:58;;;;;;;3.17;1.40;;;;;;;;;;5134490;27;20035;-66
2023/08/16 10:43:50;;;;;;;5.30;0.95;;;;;;;;;;5133236;27;20039;-66
2023/08/16 10:46:16;;;;;;;;;;;;;;;;;;5103104;27;20111;-66
2023/08/16 10:48:42;;;;;;;3.00;0.90;;;;;;;;;;5134696;27;19919;-66
2023/08/16 10:51:09;;;;;;;2.40;1.10;;;;;;;;;;5121085;27;20487;-66
2023/08/16 10:53:37;;;;;;;2.90;0.82;;;;;;;;;;5130467;27;20425;-66
2023/08/16 10:56:06;;;;;;;2.38;1.17;;;;;;;;;;5129532;27;20118;-66
2023/08/16 10:58:43;;;;;;;1.55;0.80;;;;;;;;;;5121975;27;20041;-66
2023/08/16 11:01:09;;;;;;;2.45;0.90;;;;;;;;;;5134610;27;20431;-66
2023/08/16 11:03:37;;;;;;;2.72;0.80;;;;;;;;;;5133933;27;20042;-66
2023/08/16 11:06:10;;;;;;;3.17;0.90;;;;;;;;;;5100407;27;20418;-65
2023/08/16 11:08:38;;;;;;;1.75;1.02;;;;;;;;;;5131013;27;20096;-65
2023/08/16 11:11:04;;;;;;;1.73;1.00;;;;;;;;;;5129986;27;20066;-67
2023/08/16 11:13:30;;;;;;;3.90;0.80;;;;;;;;;;5116421;27;21044;-65
2023/08/16 11:15:57;;;;;;;2.80;0.90;;;;;;;;;;5112661;27;20071;-67
2023/08/16 11:18:27;;;;;;;3.40;1.10;;;;;;;;;;5132414;27;20084;-65
2023/08/16 11:20:53;;;;;;;3.05;1.20;;;;;;;;;;5125848;27;20564;-66
2023/08/16 11:23:19;;;;;;;2.35;1.23;;;;;;;;;;5127789;27;20027;-65
2023/08/16 11:25:45;;;;;;;2.00;1.15;;;;;;;;;;5125961;27;20462;-67
2023/08/16 11:28:11;;;;;;;2.40;0.90;;;;;;;;;;5116747;27;20432;-65
2023/08/16 11:30:37;;;;;;;2.95;1.27;;;;;;;;;;5132755;27;20041;-65
2023/08/16 11:33:05;;;;;;;7.88;1.50;;;;;;;;;;5128441;27;20043;-66
2023/08/16 11:35:31;;;;;;;2.63;0.93;;;;;;;;;;5132348;27;20054;-65
2023/08/16 11:37:59;;;;;;;2.97;1.10;;;;;;;;;;5131995;27;20035;-65
2023/08/16 11:40:25;;;;;;;4.07;1.00;;;;;;;;;;5131886;27;20039;-64
2023/08/16 11:42:51;;;;;;;1.90;0.70;;;;;;;;;;5132087;27;20504;-65
2023/08/16 11:45:23;;;;;;;1.50;0.60;;;;;;;;;;5119185;27;20042;-66
2023/08/16 11:47:52;;;;;;;0.85;0.73;;;;;;;;;;5129507;27;20481;-66
2023/08/16 11:50:19;;;;;;;1.83;0.95;;;;;;;;;;5127172;27;20051;-67
2023/08/16 11:52:55;;;;;;;1.92;0.60;;;;;;;;;;5118522;27;20027;-66
2023/08/16 11:55:22;;;;;;;4.72;0.80;;;;;;;;;;5132445;27;20097;-66
2023/08/16 11:57:48;;;;;;;2.85;1.00;;;;;;;;;;5132722;27;20484;-66
2023/08/16 12:00:25;;;;;;;1.52;1.02;;;;;;;;;;5131686;27;20054;-66
2023/08/16 12:02:51;;;;;;;3.10;1.20;;;;;;;;;;5104444;27;20126;-64
2023/08/16 12:05:17;;;;;;;4.43;1.05;;;;;;;;;;5119468;27;20040;-65
2023/08/16 12:07:43;;;;;;;1.75;1.00;;;;;;;;;;5111040;28;20039;-65
2023/08/16 12:10:09;;;;;;;3.30;1.42;;;;;;;;;;5124728;27;20047;-65
2023/08/16 12:12:35;;;;;;;2.83;1.00;;;;;;;;;;5110483;28;20059;-66
2023/08/16 12:15:01;;;;;;;2.42;0.90;;;;;;;;;;5110487;28;20053;-67
2023/08/16 12:17:27;;;;;;;2.92;1.00;;;;;;;;;;5108024;28;20047;-66
2023/08/16 12:19:53;;;;;;;1.73;1.17;;;;;;;;;;5109305;28;20380;-66
2023/08/16 12:22:19;;;;;;;1.80;1.00;;;;;;;;;;5110099;28;20040;-65
2023/08/16 12:24:46;;;;;;;2.85;1.08;;;;;;;;;;5110155;28;20081;-65
2023/08/16 12:27:12;;;;;;;1.60;1.20;;;;;;;;;;5110685;28;20036;-67
2023/08/16 12:29:38;;;;;;;2.22;1.20;;;;;;;;;;5107154;28;20036;-67
2023/08/16 12:32:04;;;;;;;6.18;1.42;;;;;;;;;;5108187;28;20048;-67
2023/08/16 12:34:30;;;;;;;3.92;1.77;;;;;;;;;;5105860;28;20039;-67
2023/08/16 12:36:56;;;;;;;3.55;1.52;;;;;;;;;;5110680;28;20519;-67
2023/08/16 12:39:22;;;;;;;4.78;1.27;;;;;;;;;;5110103;28;20048;-67
2023/08/16 12:41:48;;;;;;;1.20;1.08;;;;;;;;;;5107270;28;20042;-67
2023/08/16 12:44:15;;;;;;;6.28;1.27;;;;;;;;;;5110359;28;20039;-66
2023/08/16 12:46:41;;;;;;;2.08;1.20;;;;;;;;;;5110177;28;20191;-67
2023/08/16 12:49:07;;;;;;;3.30;1.02;;;;;;;;;;5110781;28;20173;-67
2023/08/16 12:51:33;;;;;;;2.03;1.30;;;;;;;;;;5124801;28;20050;-67
2023/08/16 12:53:59;;;;;;;2.83;1.50;;;;;;;;;;5113369;27;20035;-67
2023/08/16 12:56:25;;;;;;;4.65;1.23;;;;;;;;;;5110638;28;20051;-68
2023/08/16 12:58:51;;;;;;;2.83;1.13;;;;;;;;;;5110885;28;20043;-66
2023/08/16 13:01:17;;;;;;;4.72;1.13;;;;;;;;;;5113365;28;20126;-67
2023/08/16 13:03:44;;;;;;;1.63;0.85;;;;;;;;;;5110596;28;20116;-67
2023/08/16 13:06:11;;;;;;;2.83;0.95;;;;;;;;;;5110848;28;20046;-67
2023/08/16 13:08:37;;;;;;;7.10;1.40;;;;;;;;;;5112927;28;20130;-67
2023/08/16 13:11:03;;;;;;;5.28;0.82;;;;;;;;;;5112182;28;20040;-67
2023/08/16 13:13:29;;;;;;;2.30;1.23;;;;;;;;;;5122483;28;20051;-67
2023/08/16 13:15:55;;;;;;;1.90;1.00;;;;;;;;;;5113127;27;20040;-66
2023/08/16 13:18:21;;;;;;;2.33;0.90;;;;;;;;;;5113962;28;20528;-68
2023/08/16 13:20:47;;;;;;;1.88;0.90;;;;;;;;;;5132327;27;20035;-68
2023/08/16 13:23:13;;;;;;;2.45;0.90;;;;;;;;;;5113962;28;20363;-68
2023/08/16 13:25:39;;;;;;;3.25;1.00;;;;;;;;;;5119375;27;20538;-64
2023/08/16 13:28:08;;;;;;;2.08;1.00;;;;;;;;;;5130151;27;20035;-64
2023/08/16 13:30:37;;;;;;;2.20;0.85;;;;;;;;;;5133429;27;20039;-65
2023/08/16 13:33:03;;;;;;;2.25;1.10;;;;;;;;;;5133798;27;20505;-64
2023/08/16 13:35:29;;;;;;;3.50;0.80;;;;;;;;;;5134681;27;20046;-64
2023/08/16 13:37:55;;;;;;;2.95;1.00;;;;;;;;;;5134621;27;20548;-64
2023/08/16 13:40:21;;;;;;;1.80;0.93;;;;;;;;;;5134782;27;20043;-65
2023/08/16 13:42:47;;;;;;;2.38;0.80;;;;;;;;;;5134429;27;20043;-65
2023/08/16 13:45:14;;;;;;;2.75;0.88;;;;;;;;;;5133984;27;20047;-64
2023/08/16 13:47:40;;;;;;;2.17;0.65;;;;;;;;;;5132326;27;20046;-64
2023/08/16 13:50:06;;;;;;;2.15;1.02;;;;;;;;;;5134681;27;20039;-65
2023/08/16 13:52:32;;;;;;;3.20;1.05;;;;;;;;;;5133844;27;20031;-64
2023/08/16 13:54:58;;;;;;;2.67;0.73;;;;;;;;;;5134524;27;20088;-64
2023/08/16 13:57:25;;;;;;;1.20;0.60;;;;;;;;;;5134564;27;20396;-64
2023/08/16 13:59:51;;;;;;;1.55;0.95;;;;;;;;;;5134213;27;20107;-64
2023/08/16 14:02:18;;;;;;;1.67;0.70;;;;;;;;;;5134236;27;20043;-64
2023/08/16 14:04:44;;;;;;;0.70;0.50;;;;;;;;;;5134444;27;20439;-64
2023/08/16 14:07:10;;;;;;;1.65;0.82;;;;;;;;;;5134134;27;20450;-64
2023/08/16 14:09:36;;;;;;;1.30;0.60;;;;;;;;;;5126870;27;20114;-66
2023/08/16 14:12:02;;;;;;;1.40;0.60;;;;;;;;;;5134312;27;20588;-66
2023/08/16 14:14:28;;;;;;;1.48;0.70;;;;;;;;;;5133470;27;20738;-66
2023/08/16 14:16:54;;;;;;;1.40;0.60;;;;;;;;;;5134591;27;20042;-66
2023/08/16 14:19:20;;;;;;;0.77;0.60;;;;;;;;;;5134641;27;20118;-66
2023/08/16 14:21:46;;;;;;;1.73;0.70;;;;;;;;;;5134209;27;20114;-67
2023/08/16 14:24:12;;;;;;;2.67;0.50;;;;;;;;;;5134524;27;20126;-67
2023/08/16 14:26:38;;;;;;;0.80;0.70;;;;;;;;;;5119873;27;20043;-66
2023/08/16 14:29:06;;;;;;;2.33;0.75;;;;;;;;;;5113150;28;20111;-67
2023/08/16 14:31:32;;;;;;;1.55;0.70;;;;;;;;;;5112344;28;20505;-66
2023/08/16 14:33:58;;;;;;;2.50;0.52;;;;;;;;;;5113555;28;20039;-66
2023/08/16 14:36:24;;;;;;;2.17;0.73;;;;;;;;;;5113304;28;20040;-66